Monroe, North Carolina
Current Conditions -  °F | °C
As of 3:53 PM on Friday 19 Dec 2014 (Local Time) from KEQY Reporting Station
Clear Clear  
Wind Chill: 56°   Ceiling: Unl
Heat Index: 56°   Visibility: 10mi
Dew Point: 28°   Wind: 0mph
Humidity: 34%   Direction: NA
Pressure: 30.11"   Gusts: NA
Location:  34.98°N, 80.55°W
Report Text: KEQY 192053Z AUTO 00000KT 10SM CLR 13/M02 A3011 RMK AO2 SLP210 T01331022 55002
Loading
Personal Weather Stations






























Interactive Weather Map New forecast layout! Learn more

10-Day Weather Forecast

Advertisements
Track Severe Weather on mobile